SAS931 EKCH-KLAX
Flight info
| Callsign | SAS931 |
|---|---|
| Flight time | 4h 0m |
| Altitude | 32000 |
| Route | GOLGA DCT KRM DCT VALDI/M079F320 DCT 64N010W 66N020W 68N030W/M081F340 69N040W 69N050W 69N060W DCT BOPUT/N0473F340 DCT 68N070W 65N084W/N0472F360 60N095W 55N101W DCT DURUR DCT KATEN/N0465F380 DCT BIL DCT FFU DCT DTA DCT BLD DCT OTOOL ANJLL4 |
| Aircraft | A343/H-V/N |
Departure
| Time | 2026-04-22 16:39 |
|---|---|
| Airport | Copenhagen Kastrup Airport (EKCH) |
Arrival
| Time | 2026-04-22 20:40 |
|---|---|
| Airport | Los Angeles International Airport (KLAX) |
| Time | Latitude | Longitude | Altitude | Speed | Heading |
|---|---|---|---|---|---|
| 2026-04-22 15:57 | 55.62422 | 12.64907 | 28 ft | 0 kts | 89° |
| 2026-04-22 16:28 | 55.62422 | 12.64896 | 27 ft | 3 kts | 89° |
| 2026-04-22 16:28 | 55.62422 | 12.64863 | 27 ft | 3 kts | 89° |
| 2026-04-22 16:28 | 55.62423 | 12.64828 | 27 ft | 3 kts | 126° |
| 2026-04-22 16:28 | 55.62437 | 12.64806 | 27 ft | 3 kts | 145° |
| 2026-04-22 16:29 | 55.62453 | 12.64787 | 27 ft | 3 kts | 163° |
| 2026-04-22 16:29 | 55.62459 | 12.64783 | 27 ft | 0 kts | 173° |
| 2026-04-22 16:31 | 55.62453 | 12.64782 | 27 ft | 2 kts | 179° |
| 2026-04-22 16:31 | 55.62426 | 12.64782 | 27 ft | 6 kts | 180° |
| 2026-04-22 16:32 | 55.62372 | 12.64783 | 27 ft | 9 kts | 179° |
| 2026-04-22 16:32 | 55.62311 | 12.64786 | 27 ft | 9 kts | 176° |
| 2026-04-22 16:32 | 55.62245 | 12.64793 | 28 ft | 9 kts | 184° |
| 2026-04-22 16:32 | 55.62192 | 12.64750 | 28 ft | 9 kts | 214° |
| 2026-04-22 16:33 | 55.62117 | 12.64662 | 28 ft | 17 kts | 213° |
| 2026-04-22 16:33 | 55.62013 | 12.64543 | 27 ft | 16 kts | 211° |
| 2026-04-22 16:33 | 55.61911 | 12.64508 | 27 ft | 15 kts | 172° |
| 2026-04-22 16:33 | 55.61811 | 12.64538 | 27 ft | 16 kts | 169° |
| 2026-04-22 16:34 | 55.61710 | 12.64571 | 27 ft | 10 kts | 172° |
| 2026-04-22 16:34 | 55.61649 | 12.64533 | 27 ft | 10 kts | 214° |
| 2026-04-22 16:34 | 55.61584 | 12.64457 | 27 ft | 13 kts | 213° |
| 2026-04-22 16:34 | 55.61498 | 12.64359 | 27 ft | 16 kts | 213° |
| 2026-04-22 16:35 | 55.61394 | 12.64239 | 27 ft | 19 kts | 213° |
| 2026-04-22 16:35 | 55.61287 | 12.64116 | 27 ft | 18 kts | 213° |
| 2026-04-22 16:35 | 55.61176 | 12.63990 | 27 ft | 20 kts | 213° |
| 2026-04-22 16:35 | 55.61048 | 12.63843 | 27 ft | 23 kts | 213° |
| 2026-04-22 16:36 | 55.60904 | 12.63677 | 27 ft | 26 kts | 213° |
| 2026-04-22 16:36 | 55.60745 | 12.63495 | 27 ft | 28 kts | 213° |
| 2026-04-22 16:36 | 55.60593 | 12.63298 | 27 ft | 26 kts | 222° |
| 2026-04-22 16:36 | 55.60493 | 12.63141 | 27 ft | 12 kts | 218° |
| 2026-04-22 16:37 | 55.60425 | 12.63131 | 27 ft | 9 kts | 151° |
| 2026-04-22 16:37 | 55.60377 | 12.63216 | 28 ft | 11 kts | 132° |
| 2026-04-22 16:37 | 55.60340 | 12.63297 | 30 ft | 5 kts | 121° |
| 2026-04-22 16:37 | 55.60340 | 12.63332 | 30 ft | 2 kts | 73° |
| 2026-04-22 16:38 | 55.60356 | 12.63365 | 30 ft | 7 kts | 46° |
| 2026-04-22 16:38 | 55.60427 | 12.63482 | 28 ft | 27 kts | 42° |
| 2026-04-22 16:38 | 55.60711 | 12.63919 | 29 ft | 81 kts | 41° |
| 2026-04-22 16:38 | 55.61264 | 12.64777 | 29 ft | 129 kts | 41° |
| 2026-04-22 16:39 | 55.62048 | 12.65992 | 35 ft | 168 kts | 42° |
| 2026-04-22 16:39 | 55.62922 | 12.67389 | 492 ft | 167 kts | 37° |
| 2026-04-22 16:39 | 55.63794 | 12.68722 | 1019 ft | 168 kts | 37° |
| 2026-04-22 16:39 | 55.64724 | 12.70079 | 1300 ft | 179 kts | 27° |
| 2026-04-22 16:40 | 55.65926 | 12.70620 | 1436 ft | 184 kts | 354° |
| 2026-04-22 16:40 | 55.67255 | 12.70428 | 1573 ft | 201 kts | 353° |
| 2026-04-22 16:40 | 55.70268 | 12.70021 | 2116 ft | 231 kts | 354° |
| 2026-04-22 16:41 | 55.71930 | 12.69833 | 2422 ft | 246 kts | 353° |
| 2026-04-22 16:41 | 55.73663 | 12.69607 | 2957 ft | 252 kts | 353° |
| 2026-04-22 16:41 | 55.75428 | 12.69379 | 3553 ft | 256 kts | 354° |
| 2026-04-22 16:41 | 55.77225 | 12.69192 | 4127 ft | 260 kts | 355° |
| 2026-04-22 16:42 | 55.79048 | 12.69035 | 4690 ft | 264 kts | 355° |
| 2026-04-22 16:42 | 55.80873 | 12.68568 | 5235 ft | 268 kts | 342° |
| 2026-04-22 16:42 | 55.82490 | 12.66922 | 5764 ft | 273 kts | 317° |
| 2026-04-22 16:42 | 55.83551 | 12.64146 | 6374 ft | 278 kts | 298° |
| 2026-04-22 16:43 | 55.84295 | 12.60936 | 6936 ft | 282 kts | 295° |
| 2026-04-22 16:43 | 55.85002 | 12.57657 | 7446 ft | 286 kts | 295° |
| 2026-04-22 16:43 | 55.85721 | 12.54343 | 7843 ft | 289 kts | 295° |
| 2026-04-22 16:43 | 55.86455 | 12.50984 | 8195 ft | 292 kts | 296° |
| 2026-04-22 16:44 | 55.87197 | 12.47612 | 8564 ft | 294 kts | 295° |
| 2026-04-22 16:44 | 55.87948 | 12.44204 | 8931 ft | 296 kts | 295° |
| 2026-04-22 16:44 | 55.88706 | 12.40770 | 9322 ft | 299 kts | 295° |
| 2026-04-22 16:44 | 55.89469 | 12.37312 | 9691 ft | 301 kts | 296° |
| 2026-04-22 16:45 | 55.90293 | 12.33870 | 10071 ft | 301 kts | 302° |
| 2026-04-22 16:45 | 55.91388 | 12.30758 | 10388 ft | 302 kts | 308° |
| 2026-04-22 16:45 | 55.92614 | 12.27654 | 10546 ft | 311 kts | 309° |
| 2026-04-22 16:45 | 55.93887 | 12.24470 | 10689 ft | 320 kts | 309° |
| 2026-04-22 16:46 | 55.95193 | 12.21190 | 10811 ft | 328 kts | 309° |
| 2026-04-22 16:46 | 55.96532 | 12.17806 | 10963 ft | 337 kts | 308° |
| 2026-04-22 16:46 | 55.97901 | 12.14336 | 11103 ft | 345 kts | 308° |
| 2026-04-22 16:46 | 55.99295 | 12.10793 | 11266 ft | 352 kts | 308° |
| 2026-04-22 16:47 | 56.00713 | 12.07180 | 11422 ft | 358 kts | 308° |
| 2026-04-22 16:47 | 56.02156 | 12.03505 | 11673 ft | 362 kts | 308° |
| 2026-04-22 16:47 | 56.03194 | 12.01162 | 11841 ft | 361 kts | 315° |
| 2026-04-22 16:47 | 56.05819 | 11.97524 | 12165 ft | 361 kts | 331° |
| 2026-04-22 16:48 | 56.08011 | 11.95277 | 12458 ft | 363 kts | 332° |
| 2026-04-22 16:48 | 56.10224 | 11.93062 | 12757 ft | 365 kts | 332° |
| 2026-04-22 16:48 | 56.12451 | 11.90826 | 13060 ft | 367 kts | 332° |
| 2026-04-22 16:48 | 56.14689 | 11.88567 | 13349 ft | 369 kts | 332° |
| 2026-04-22 16:49 | 56.16177 | 11.87059 | 13565 ft | 371 kts | 332° |
| 2026-04-22 16:49 | 56.19169 | 11.84019 | 14171 ft | 375 kts | 332° |
| 2026-04-22 16:49 | 56.21450 | 11.81695 | 14575 ft | 378 kts | 332° |
| 2026-04-22 16:49 | 56.23745 | 11.79353 | 14973 ft | 381 kts | 332° |
| 2026-04-22 16:50 | 56.26057 | 11.76989 | 15362 ft | 384 kts | 332° |
| 2026-04-22 16:50 | 56.27596 | 11.75413 | 15635 ft | 386 kts | 332° |
| 2026-04-22 16:50 | 56.29936 | 11.73016 | 16045 ft | 388 kts | 332° |
| 2026-04-22 16:50 | 56.32287 | 11.70602 | 16458 ft | 391 kts | 332° |
| 2026-04-22 16:51 | 56.34657 | 11.68159 | 16842 ft | 394 kts | 332° |
| 2026-04-22 16:51 | 56.37015 | 11.65595 | 17234 ft | 397 kts | 330° |
| 2026-04-22 16:51 | 56.39364 | 11.62933 | 17623 ft | 400 kts | 329° |
| 2026-04-22 16:51 | 56.41721 | 11.60218 | 18005 ft | 403 kts | 329° |
| 2026-04-22 16:52 | 56.44094 | 11.57481 | 18385 ft | 406 kts | 329° |
| 2026-04-22 16:52 | 56.46491 | 11.54725 | 18715 ft | 409 kts | 330° |
| 2026-04-22 16:52 | 56.48905 | 11.51963 | 19047 ft | 412 kts | 330° |
| 2026-04-22 16:52 | 56.51346 | 11.49178 | 19386 ft | 415 kts | 330° |
| 2026-04-22 16:53 | 56.53801 | 11.46380 | 19715 ft | 417 kts | 330° |
| 2026-04-22 16:53 | 56.56235 | 11.43606 | 20037 ft | 420 kts | 330° |
| 2026-04-22 16:53 | 56.58749 | 11.40736 | 20358 ft | 423 kts | 330° |
| 2026-04-22 16:53 | 56.61203 | 11.37930 | 20780 ft | 423 kts | 331° |
| 2026-04-22 16:54 | 56.63697 | 11.35075 | 21103 ft | 425 kts | 331° |
| 2026-04-22 16:54 | 56.66202 | 11.32202 | 21400 ft | 428 kts | 331° |
| 2026-04-22 16:54 | 56.68726 | 11.29304 | 21705 ft | 430 kts | 331° |
| 2026-04-22 16:54 | 56.71265 | 11.26381 | 22021 ft | 432 kts | 331° |
| 2026-04-22 16:55 | 56.73816 | 11.23440 | 22335 ft | 435 kts | 331° |
| 2026-04-22 16:55 | 56.76376 | 11.20484 | 22637 ft | 437 kts | 331° |
| 2026-04-22 16:55 | 56.78954 | 11.17501 | 22924 ft | 439 kts | 331° |
| 2026-04-22 16:55 | 56.81542 | 11.14502 | 23205 ft | 442 kts | 331° |
| 2026-04-22 16:56 | 56.84143 | 11.11484 | 23495 ft | 444 kts | 332° |
| 2026-04-22 16:56 | 56.86756 | 11.08446 | 23785 ft | 446 kts | 332° |
| 2026-04-22 16:56 | 56.89381 | 11.05389 | 24002 ft | 448 kts | 332° |
| 2026-04-22 16:56 | 56.92008 | 11.02323 | 24333 ft | 447 kts | 332° |
| 2026-04-22 16:57 | 56.94642 | 10.99242 | 24583 ft | 449 kts | 332° |
| 2026-04-22 16:57 | 56.97248 | 10.96193 | 24788 ft | 451 kts | 332° |
| 2026-04-22 16:57 | 56.99907 | 10.93076 | 24980 ft | 454 kts | 332° |
| 2026-04-22 16:57 | 57.02579 | 10.89940 | 25187 ft | 456 kts | 332° |
| 2026-04-22 16:58 | 57.05263 | 10.86782 | 25402 ft | 458 kts | 332° |
| 2026-04-22 16:58 | 57.07948 | 10.83621 | 25587 ft | 459 kts | 333° |
| 2026-04-22 16:58 | 57.10653 | 10.80487 | 25609 ft | 460 kts | 333° |
| 2026-04-22 16:58 | 57.13363 | 10.77367 | 25665 ft | 460 kts | 333° |
| 2026-04-22 16:59 | 57.16086 | 10.74215 | 25712 ft | 461 kts | 333° |
| 2026-04-22 16:59 | 57.18766 | 10.71075 | 25762 ft | 463 kts | 332° |
| 2026-04-22 16:59 | 57.21481 | 10.67808 | 25939 ft | 466 kts | 331° |
| 2026-04-22 16:59 | 57.24190 | 10.64503 | 26199 ft | 466 kts | 331° |
| 2026-04-22 17:00 | 57.26904 | 10.61193 | 26404 ft | 468 kts | 332° |
| 2026-04-22 17:00 | 57.32378 | 10.54572 | 26781 ft | 471 kts | 332° |
| 2026-04-22 17:00 | 57.35135 | 10.51252 | 26982 ft | 473 kts | 332° |
| 2026-04-22 17:01 | 57.37906 | 10.47919 | 27169 ft | 475 kts | 332° |
| 2026-04-22 17:01 | 57.40687 | 10.44572 | 27360 ft | 477 kts | 332° |
| 2026-04-22 17:01 | 57.43440 | 10.41253 | 27538 ft | 478 kts | 332° |
| 2026-04-22 17:01 | 57.46241 | 10.37871 | 27709 ft | 480 kts | 332° |
| 2026-04-22 17:02 | 57.49043 | 10.34479 | 27915 ft | 482 kts | 332° |
| 2026-04-22 17:02 | 57.51865 | 10.31058 | 28089 ft | 483 kts | 332° |
| 2026-04-22 17:02 | 57.54678 | 10.27637 | 28338 ft | 482 kts | 332° |
| 2026-04-22 17:02 | 57.57466 | 10.24244 | 28399 ft | 486 kts | 332° |
| 2026-04-22 17:03 | 57.60308 | 10.20779 | 28517 ft | 489 kts | 332° |
| 2026-04-22 17:03 | 57.63158 | 10.17296 | 28693 ft | 490 kts | 332° |
| 2026-04-22 17:03 | 57.66010 | 10.13803 | 28888 ft | 490 kts | 332° |
| 2026-04-22 17:03 | 57.68861 | 10.10302 | 29126 ft | 490 kts | 332° |
| 2026-04-22 17:04 | 57.71714 | 10.06793 | 29347 ft | 490 kts | 332° |
| 2026-04-22 17:04 | 57.74566 | 10.03279 | 29551 ft | 490 kts | 332° |
| 2026-04-22 17:04 | 57.77417 | 9.99760 | 29768 ft | 490 kts | 332° |
| 2026-04-22 17:04 | 57.80267 | 9.96237 | 29951 ft | 490 kts | 332° |
| 2026-04-22 17:05 | 57.83107 | 9.92719 | 30236 ft | 488 kts | 331° |
| 2026-04-22 17:05 | 57.85926 | 9.89218 | 30552 ft | 485 kts | 331° |
| 2026-04-22 17:05 | 57.88739 | 9.85719 | 30689 ft | 485 kts | 331° |
| 2026-04-22 17:05 | 57.91560 | 9.82207 | 30816 ft | 486 kts | 331° |
| 2026-04-22 17:06 | 57.97220 | 9.75144 | 30895 ft | 492 kts | 331° |
| 2026-04-22 17:06 | 58.00071 | 9.71574 | 31053 ft | 491 kts | 331° |
| 2026-04-22 17:06 | 58.02914 | 9.68003 | 31239 ft | 491 kts | 331° |
| 2026-04-22 17:07 | 58.05759 | 9.64453 | 31387 ft | 489 kts | 333° |
| 2026-04-22 17:07 | 58.08695 | 9.61450 | 31531 ft | 484 kts | 341° |
| 2026-04-22 17:07 | 58.11776 | 9.58945 | 31651 ft | 482 kts | 342° |
| 2026-04-22 17:07 | 58.14882 | 9.56562 | 31891 ft | 479 kts | 343° |
| 2026-04-22 17:08 | 58.17977 | 9.54262 | 32091 ft | 477 kts | 343° |
| 2026-04-22 17:08 | 58.21081 | 9.51992 | 32198 ft | 478 kts | 344° |
| 2026-04-22 17:08 | 58.27273 | 9.47475 | 32228 ft | 475 kts | 344° |
| 2026-04-22 17:09 | 58.33451 | 9.42934 | 32219 ft | 481 kts | 343° |
| 2026-04-22 17:09 | 58.39731 | 9.38282 | 32222 ft | 487 kts | 343° |
| 2026-04-22 17:10 | 58.46089 | 9.33539 | 32222 ft | 493 kts | 343° |
| 2026-04-22 17:10 | 58.52506 | 9.28732 | 32222 ft | 495 kts | 343° |
| 2026-04-22 17:11 | 58.58916 | 9.23907 | 32213 ft | 494 kts | 343° |
| 2026-04-22 17:11 | 58.65307 | 9.19082 | 32213 ft | 494 kts | 343° |
| 2026-04-22 17:12 | 58.78764 | 9.08863 | 32215 ft | 488 kts | 342° |
| 2026-04-22 17:12 | 59.04450 | 8.95054 | 32206 ft | 479 kts | 350° |
| 2026-04-22 17:13 | 59.30710 | 8.82618 | 32209 ft | 483 kts | 350° |
| 2026-04-22 17:13 | 59.56332 | 8.68113 | 32248 ft | 490 kts | 331° |
| 2026-04-22 17:14 | 59.66029 | 8.48900 | 32246 ft | 497 kts | 312° |
| 2026-04-22 17:14 | 59.75251 | 8.28322 | 32288 ft | 495 kts | 325° |
| 2026-04-22 17:14 | 59.97662 | 7.96474 | 32315 ft | 493 kts | 328° |
| 2026-04-22 17:15 | 60.19971 | 7.64626 | 32330 ft | 495 kts | 327° |
| 2026-04-22 17:15 | 60.42319 | 7.32174 | 32337 ft | 496 kts | 327° |
| 2026-04-22 17:16 | 60.64699 | 6.99103 | 32334 ft | 495 kts | 326° |
| 2026-04-22 17:16 | 60.86993 | 6.65578 | 32348 ft | 499 kts | 326° |
| 2026-04-22 17:17 | 61.09231 | 6.31536 | 32368 ft | 497 kts | 325° |
| 2026-04-22 17:17 | 61.31343 | 5.97075 | 32399 ft | 496 kts | 325° |
| 2026-04-22 17:18 | 61.53189 | 5.62406 | 32430 ft | 496 kts | 324° |
| 2026-04-22 17:18 | 61.75223 | 5.26808 | 32452 ft | 499 kts | 324° |
| 2026-04-22 17:19 | 62.18967 | 4.54115 | 32465 ft | 500 kts | 323° |
| 2026-04-22 17:20 | 62.62531 | 3.78932 | 32459 ft | 501 kts | 322° |
| 2026-04-22 17:21 | 62.95074 | 3.20828 | 32460 ft | 502 kts | 321° |
| 2026-04-22 17:22 | 63.15506 | 2.79390 | 32452 ft | 504 kts | 307° |
| 2026-04-22 17:22 | 63.23642 | 2.54077 | 32449 ft | 504 kts | 305° |
| 2026-04-22 17:23 | 63.47738 | 1.76945 | 32455 ft | 505 kts | 304° |
| 2026-04-22 17:23 | 63.71511 | 0.98267 | 32452 ft | 508 kts | 303° |
| 2026-04-22 17:24 | 63.87039 | 0.45350 | 32446 ft | 508 kts | 303° |
| 2026-04-22 17:24 | 64.03511 | -0.06735 | 32455 ft | 509 kts | 317° |
| 2026-04-22 17:25 | 64.24741 | -0.49482 | 32438 ft | 510 kts | 319° |
| 2026-04-22 17:25 | 64.45919 | -0.92970 | 32433 ft | 507 kts | 318° |
| 2026-04-22 17:26 | 64.66913 | -1.37014 | 32427 ft | 507 kts | 318° |
| 2026-04-22 17:26 | 64.87786 | -1.81767 | 32424 ft | 510 kts | 317° |
| 2026-04-22 17:27 | 65.08426 | -2.27006 | 32425 ft | 507 kts | 316° |
| 2026-04-22 17:27 | 65.29052 | -2.73230 | 32413 ft | 509 kts | 316° |
| 2026-04-22 17:28 | 65.49348 | -3.19753 | 32406 ft | 506 kts | 315° |
| 2026-04-22 17:28 | 65.69627 | -3.67325 | 32403 ft | 507 kts | 315° |
| 2026-04-22 17:29 | 65.89722 | -4.15592 | 32402 ft | 506 kts | 314° |
| 2026-04-22 17:29 | 66.09600 | -4.64416 | 32392 ft | 506 kts | 314° |
| 2026-04-22 17:30 | 66.29334 | -5.14051 | 32392 ft | 502 kts | 313° |
| 2026-04-22 17:30 | 66.48761 | -5.64072 | 32386 ft | 506 kts | 312° |
| 2026-04-22 17:31 | 66.68098 | -6.15065 | 32371 ft | 503 kts | 311° |
| 2026-04-22 17:31 | 66.87347 | -6.67077 | 32371 ft | 503 kts | 310° |
| 2026-04-22 17:32 | 67.06324 | -7.19636 | 32355 ft | 503 kts | 310° |
| 2026-04-22 17:32 | 67.25047 | -7.72794 | 32341 ft | 501 kts | 309° |
| 2026-04-22 17:33 | 67.43417 | -8.26262 | 32336 ft | 494 kts | 308° |
| 2026-04-22 17:33 | 67.61615 | -8.80592 | 32320 ft | 497 kts | 307° |
| 2026-04-22 17:34 | 67.79683 | -9.35928 | 32314 ft | 497 kts | 307° |
| 2026-04-22 17:34 | 67.97500 | -9.91913 | 32313 ft | 490 kts | 306° |
| 2026-04-22 17:35 | 68.16621 | -10.44466 | 32292 ft | 493 kts | 311° |
| 2026-04-22 17:35 | 68.32458 | -10.87809 | 32287 ft | 484 kts | 310° |
| 2026-04-22 17:36 | 68.54209 | -11.48874 | 32277 ft | 478 kts | 309° |
| 2026-04-22 17:36 | 68.69482 | -11.92863 | 32271 ft | 479 kts | 309° |
| 2026-04-22 17:37 | 68.87596 | -12.46247 | 32254 ft | 472 kts | 309° |
| 2026-04-22 17:37 | 69.05424 | -13.00166 | 32249 ft | 471 kts | 308° |
| 2026-04-22 17:38 | 69.22805 | -13.54093 | 32245 ft | 465 kts | 308° |
| 2026-04-22 17:38 | 69.39954 | -14.08687 | 32234 ft | 461 kts | 308° |
| 2026-04-22 17:39 | 69.56832 | -14.63835 | 32233 ft | 463 kts | 309° |
| 2026-04-22 17:40 | 69.81709 | -15.47828 | 32214 ft | 461 kts | 309° |
| 2026-04-22 17:40 | 69.98105 | -16.05048 | 32196 ft | 463 kts | 309° |
| 2026-04-22 17:41 | 70.14456 | -16.63691 | 32204 ft | 462 kts | 308° |
| 2026-04-22 17:41 | 70.30527 | -17.22947 | 32205 ft | 461 kts | 308° |
| 2026-04-22 17:42 | 70.46350 | -17.82938 | 32198 ft | 464 kts | 307° |
| 2026-04-22 17:42 | 70.62108 | -18.44401 | 32197 ft | 464 kts | 307° |
| 2026-04-22 17:43 | 70.77521 | -19.06280 | 32198 ft | 460 kts | 306° |
| 2026-04-22 17:43 | 70.92646 | -19.68791 | 32192 ft | 456 kts | 304° |
| 2026-04-22 17:44 | 71.07483 | -20.31932 | 32183 ft | 455 kts | 304° |
| 2026-04-22 17:44 | 71.22018 | -20.95646 | 32181 ft | 449 kts | 303° |
| 2026-04-22 17:45 | 71.36126 | -21.59363 | 32181 ft | 449 kts | 302° |
| 2026-04-22 17:45 | 71.49983 | -22.23818 | 32193 ft | 444 kts | 301° |
| 2026-04-22 17:46 | 71.63580 | -22.89069 | 32193 ft | 442 kts | 300° |
| 2026-04-22 17:46 | 71.76777 | -23.54365 | 32195 ft | 440 kts | 299° |
| 2026-04-22 17:47 | 71.89782 | -24.20703 | 32176 ft | 438 kts | 298° |
| 2026-04-22 17:47 | 72.02525 | -24.87813 | 32170 ft | 438 kts | 298° |
| 2026-04-22 17:48 | 72.14983 | -25.55589 | 32184 ft | 435 kts | 297° |
| 2026-04-22 17:48 | 72.27092 | -26.23650 | 32198 ft | 435 kts | 296° |
| 2026-04-22 17:49 | 72.38970 | -26.92572 | 32216 ft | 432 kts | 295° |
| 2026-04-22 17:49 | 72.50587 | -27.62261 | 32216 ft | 431 kts | 294° |
| 2026-04-22 17:50 | 72.61903 | -28.32564 | 32213 ft | 428 kts | 293° |
| 2026-04-22 17:50 | 72.72940 | -29.03537 | 32248 ft | 428 kts | 292° |
| 2026-04-22 17:51 | 72.83640 | -29.74805 | 32250 ft | 427 kts | 291° |
| 2026-04-22 17:51 | 72.94112 | -30.47121 | 32229 ft | 428 kts | 291° |
| 2026-04-22 17:52 | 73.04372 | -31.20605 | 32245 ft | 428 kts | 290° |
| 2026-04-22 17:52 | 73.14397 | -31.95262 | 32280 ft | 430 kts | 288° |
| 2026-04-22 17:53 | 73.24123 | -32.70534 | 32295 ft | 427 kts | 288° |
| 2026-04-22 17:53 | 73.33423 | -33.45386 | 32295 ft | 423 kts | 286° |
| 2026-04-22 17:54 | 73.42485 | -34.21335 | 32297 ft | 424 kts | 285° |
| 2026-04-22 17:54 | 73.51288 | -34.98242 | 32264 ft | 423 kts | 284° |
| 2026-04-22 17:55 | 73.58361 | -35.62496 | 32254 ft | 422 kts | 283° |
| 2026-04-22 17:55 | 73.67886 | -36.52953 | 32246 ft | 421 kts | 282° |
| 2026-04-22 17:56 | 73.75761 | -37.31418 | 32220 ft | 415 kts | 281° |
| 2026-04-22 17:56 | 73.83254 | -38.09746 | 32206 ft | 415 kts | 280° |
| 2026-04-22 17:57 | 73.90385 | -38.87875 | 32193 ft | 411 kts | 278° |
| 2026-04-22 17:57 | 73.97220 | -39.66620 | 32173 ft | 410 kts | 278° |
| 2026-04-22 17:57 | 74.00539 | -40.06112 | 32787 ft | 409 kts | 279° |
| 2026-04-22 17:58 | 74.04479 | -40.45243 | 33317 ft | 414 kts | 281° |
| 2026-04-22 17:58 | 74.08364 | -40.84611 | 33855 ft | 413 kts | 280° |
| 2026-04-22 17:58 | 74.12135 | -41.24359 | 34178 ft | 416 kts | 279° |
| 2026-04-22 17:59 | 74.19489 | -42.04611 | 34195 ft | 414 kts | 278° |
| 2026-04-22 17:59 | 74.26478 | -42.84795 | 34197 ft | 413 kts | 278° |
| 2026-04-22 18:00 | 74.32085 | -43.52228 | 34204 ft | 413 kts | 277° |
| 2026-04-22 18:00 | 74.39629 | -44.48028 | 34207 ft | 415 kts | 276° |
| 2026-04-22 18:01 | 74.45746 | -45.30540 | 34192 ft | 415 kts | 275° |
| 2026-04-22 18:01 | 74.51572 | -46.14038 | 34186 ft | 416 kts | 275° |
| 2026-04-22 18:02 | 74.57119 | -46.98627 | 34189 ft | 417 kts | 274° |
| 2026-04-22 18:02 | 74.62319 | -47.83468 | 34188 ft | 419 kts | 273° |
| 2026-04-22 18:03 | 74.67235 | -48.69485 | 34197 ft | 418 kts | 272° |
| 2026-04-22 18:03 | 74.71816 | -49.56008 | 34218 ft | 423 kts | 271° |
| 2026-04-22 18:04 | 74.76101 | -50.43761 | 34228 ft | 422 kts | 271° |
| 2026-04-22 18:04 | 74.80093 | -51.33224 | 34213 ft | 429 kts | 270° |
| 2026-04-22 18:05 | 74.83740 | -52.23484 | 34214 ft | 435 kts | 269° |
| 2026-04-22 18:05 | 74.87098 | -53.15903 | 34206 ft | 438 kts | 269° |
| 2026-04-22 18:06 | 74.90053 | -54.08249 | 34208 ft | 443 kts | 268° |
| 2026-04-22 18:06 | 74.92675 | -55.02282 | 34247 ft | 444 kts | 267° |
| 2026-04-22 18:07 | 74.94573 | -55.81412 | 34264 ft | 448 kts | 267° |
| 2026-04-22 18:07 | 74.96785 | -56.93097 | 34348 ft | 447 kts | 266° |
| 2026-04-22 18:08 | 74.98243 | -57.89381 | 34282 ft | 451 kts | 265° |
| 2026-04-22 18:08 | 74.99296 | -58.85595 | 34294 ft | 450 kts | 264° |
| 2026-04-22 18:09 | 74.99946 | -59.82276 | 34294 ft | 449 kts | 263° |
| 2026-04-22 18:09 | 75.00736 | -60.78927 | 34311 ft | 455 kts | 264° |
| 2026-04-22 18:10 | 75.01254 | -61.76845 | 34382 ft | 455 kts | 264° |
| 2026-04-22 18:10 | 75.01350 | -62.75459 | 34331 ft | 458 kts | 263° |
| 2026-04-22 18:11 | 75.01025 | -63.73325 | 34335 ft | 459 kts | 263° |
| 2026-04-22 18:11 | 75.00275 | -64.72005 | 34339 ft | 459 kts | 262° |
| 2026-04-22 18:12 | 74.99096 | -65.70781 | 34343 ft | 461 kts | 261° |
| 2026-04-22 18:12 | 74.97791 | -66.52897 | 34351 ft | 460 kts | 260° |
| 2026-04-22 18:13 | 74.95442 | -67.68824 | 34360 ft | 464 kts | 259° |
| 2026-04-22 18:13 | 74.92981 | -68.67118 | 34373 ft | 464 kts | 259° |
| 2026-04-22 18:14 | 74.90080 | -69.65702 | 34379 ft | 464 kts | 258° |
| 2026-04-22 18:14 | 74.86758 | -70.63758 | 34392 ft | 463 kts | 257° |
| 2026-04-22 18:15 | 74.83017 | -71.61306 | 34402 ft | 464 kts | 256° |
| 2026-04-22 18:15 | 74.78623 | -72.58090 | 34418 ft | 459 kts | 249° |
| 2026-04-22 18:16 | 74.70629 | -73.50405 | 34413 ft | 461 kts | 247° |
| 2026-04-22 18:16 | 74.62232 | -74.41388 | 34419 ft | 461 kts | 246° |
| 2026-04-22 18:17 | 74.53417 | -75.31880 | 34420 ft | 461 kts | 245° |
| 2026-04-22 18:17 | 74.44232 | -76.21425 | 34432 ft | 462 kts | 245° |
| 2026-04-22 18:18 | 74.34665 | -77.10145 | 34417 ft | 462 kts | 244° |
| 2026-04-22 18:18 | 74.24732 | -77.97905 | 34422 ft | 463 kts | 243° |
| 2026-04-22 18:19 | 74.14442 | -78.84660 | 34422 ft | 463 kts | 243° |
| 2026-04-22 18:19 | 74.03799 | -79.70402 | 34424 ft | 465 kts | 242° |
| 2026-04-22 18:20 | 73.90147 | -80.48934 | 34424 ft | 460 kts | 231° |
| 2026-04-22 18:20 | 73.74878 | -81.22126 | 34425 ft | 462 kts | 231° |
| 2026-04-22 18:21 | 73.59243 | -81.94698 | 34421 ft | 462 kts | 230° |
| 2026-04-22 18:21 | 73.43344 | -82.66003 | 34411 ft | 463 kts | 230° |
| 2026-04-22 18:22 | 73.29931 | -83.24330 | 34405 ft | 463 kts | 229° |
| 2026-04-22 18:22 | 73.13575 | -83.93326 | 34400 ft | 464 kts | 229° |
| 2026-04-22 18:23 | 72.96932 | -84.61264 | 34442 ft | 464 kts | 228° |
| 2026-04-22 18:23 | 72.80071 | -85.27912 | 34440 ft | 465 kts | 227° |
| 2026-04-22 18:24 | 72.54380 | -86.25578 | 34432 ft | 465 kts | 227° |
| 2026-04-22 18:25 | 72.28317 | -87.20086 | 34425 ft | 465 kts | 226° |
| 2026-04-22 18:25 | 72.10609 | -87.81904 | 34425 ft | 466 kts | 226° |
| 2026-04-22 18:26 | 71.83646 | -88.72573 | 34425 ft | 467 kts | 225° |
| 2026-04-22 18:26 | 71.65425 | -89.31626 | 34425 ft | 467 kts | 225° |
| 2026-04-22 18:27 | 71.47028 | -89.89542 | 34424 ft | 467 kts | 224° |
| 2026-04-22 18:27 | 71.28418 | -90.46475 | 34419 ft | 467 kts | 224° |
| 2026-04-22 18:28 | 71.09643 | -91.02314 | 34414 ft | 467 kts | 223° |
| 2026-04-22 18:28 | 70.90793 | -91.56837 | 34409 ft | 467 kts | 223° |
| 2026-04-22 18:29 | 70.71667 | -92.10655 | 34403 ft | 468 kts | 223° |
| 2026-04-22 18:29 | 70.52385 | -92.63458 | 34392 ft | 468 kts | 222° |
| 2026-04-22 18:30 | 70.23164 | -93.40845 | 34392 ft | 468 kts | 222° |
| 2026-04-22 18:31 | 70.03625 | -93.90913 | 34429 ft | 468 kts | 221° |
| 2026-04-22 18:31 | 69.93623 | -94.15293 | 34943 ft | 468 kts | 219° |
| 2026-04-22 18:31 | 69.83378 | -94.38714 | 35396 ft | 469 kts | 219° |
| 2026-04-22 18:31 | 69.73129 | -94.62127 | 35788 ft | 469 kts | 219° |
| 2026-04-22 18:32 | 69.62832 | -94.85380 | 36213 ft | 470 kts | 219° |
| 2026-04-22 18:32 | 69.52486 | -95.08441 | 36370 ft | 472 kts | 219° |
| 2026-04-22 18:32 | 69.42094 | -95.31314 | 36365 ft | 471 kts | 219° |
| 2026-04-22 18:33 | 69.21280 | -95.76280 | 36354 ft | 471 kts | 219° |
| 2026-04-22 18:33 | 69.00472 | -96.20136 | 36353 ft | 470 kts | 218° |
| 2026-04-22 18:34 | 68.79437 | -96.63406 | 36338 ft | 470 kts | 218° |
| 2026-04-22 18:34 | 68.58279 | -97.05894 | 36308 ft | 470 kts | 218° |
| 2026-04-22 18:35 | 68.37046 | -97.47528 | 36316 ft | 470 kts | 218° |
| 2026-04-22 18:35 | 68.15873 | -97.88084 | 36288 ft | 469 kts | 218° |
| 2026-04-22 18:36 | 67.94434 | -98.28207 | 36284 ft | 469 kts | 217° |
| 2026-04-22 18:36 | 67.72921 | -98.67556 | 36262 ft | 469 kts | 217° |
| 2026-04-22 18:37 | 67.51478 | -99.05901 | 36271 ft | 469 kts | 217° |
| 2026-04-22 18:37 | 67.29767 | -99.43864 | 36266 ft | 469 kts | 216° |
| 2026-04-22 18:38 | 67.07979 | -99.81129 | 36256 ft | 469 kts | 216° |
| 2026-04-22 18:38 | 66.86116 | -100.17709 | 36260 ft | 469 kts | 216° |
| 2026-04-22 18:39 | 66.53326 | -100.71113 | 36255 ft | 469 kts | 216° |
| 2026-04-22 18:39 | 66.31299 | -101.06047 | 36254 ft | 469 kts | 215° |
| 2026-04-22 18:40 | 66.09192 | -101.40376 | 36251 ft | 468 kts | 215° |
| 2026-04-22 18:40 | 65.87031 | -101.74082 | 36251 ft | 468 kts | 215° |
| 2026-04-22 18:41 | 65.64824 | -102.07167 | 36246 ft | 467 kts | 214° |
| 2026-04-22 18:41 | 65.42692 | -102.39482 | 36248 ft | 467 kts | 214° |
| 2026-04-22 18:42 | 65.20384 | -102.71409 | 36253 ft | 467 kts | 214° |
| 2026-04-22 18:42 | 64.98025 | -103.02808 | 36261 ft | 466 kts | 214° |
| 2026-04-22 18:43 | 64.76140 | -103.34738 | 36250 ft | 465 kts | 214° |
| 2026-04-22 18:43 | 64.54033 | -103.66237 | 36259 ft | 465 kts | 214° |
| 2026-04-22 18:44 | 64.31877 | -103.97213 | 36261 ft | 465 kts | 214° |
| 2026-04-22 18:44 | 64.09658 | -104.27690 | 36257 ft | 464 kts | 214° |
| 2026-04-22 18:45 | 63.87369 | -104.57695 | 36266 ft | 464 kts | 214° |
| 2026-04-22 18:45 | 63.65175 | -104.87022 | 36272 ft | 464 kts | 213° |
| 2026-04-22 18:46 | 63.42787 | -105.16066 | 36271 ft | 464 kts | 213° |
| 2026-04-22 18:46 | 63.20347 | -105.44654 | 36253 ft | 463 kts | 213° |
| 2026-04-22 18:47 | 62.98045 | -105.72558 | 36269 ft | 462 kts | 213° |
| 2026-04-22 18:47 | 62.75535 | -106.00226 | 36274 ft | 461 kts | 213° |
| 2026-04-22 18:48 | 62.53214 | -106.27187 | 36268 ft | 461 kts | 212° |
| 2026-04-22 18:48 | 62.30734 | -106.53871 | 36265 ft | 460 kts | 212° |
| 2026-04-22 18:49 | 62.08231 | -106.80128 | 36252 ft | 459 kts | 212° |
| 2026-04-22 18:49 | 61.85876 | -107.05773 | 36235 ft | 458 kts | 212° |
| 2026-04-22 18:50 | 61.63406 | -107.31121 | 36213 ft | 455 kts | 212° |
| 2026-04-22 18:50 | 61.40958 | -107.56031 | 36201 ft | 455 kts | 211° |
| 2026-04-22 18:51 | 61.18630 | -107.80405 | 36179 ft | 452 kts | 211° |
| 2026-04-22 18:51 | 60.96310 | -108.04381 | 36171 ft | 450 kts | 211° |
| 2026-04-22 18:52 | 60.74149 | -108.27813 | 36155 ft | 450 kts | 211° |
| 2026-04-22 18:52 | 60.51917 | -108.50952 | 36144 ft | 447 kts | 211° |
| 2026-04-22 18:53 | 60.29830 | -108.73593 | 36135 ft | 447 kts | 211° |
| 2026-04-22 18:53 | 60.07542 | -108.96090 | 36125 ft | 447 kts | 210° |
| 2026-04-22 18:54 | 59.85267 | -109.18233 | 36124 ft | 444 kts | 210° |
| 2026-04-22 18:54 | 59.63212 | -109.39834 | 36119 ft | 444 kts | 210° |
| 2026-04-22 18:55 | 59.41135 | -109.61140 | 36111 ft | 440 kts | 210° |
| 2026-04-22 18:55 | 59.19061 | -109.82133 | 36104 ft | 437 kts | 210° |
| 2026-04-22 18:56 | 58.97217 | -110.02774 | 36088 ft | 434 kts | 213° |
| 2026-04-22 18:56 | 58.76565 | -110.26382 | 36077 ft | 428 kts | 214° |
| 2026-04-22 18:57 | 58.56031 | -110.49118 | 36062 ft | 429 kts | 213° |
| 2026-04-22 18:57 | 58.35421 | -110.71631 | 36042 ft | 425 kts | 213° |
| 2026-04-22 18:58 | 58.14767 | -110.93897 | 36006 ft | 428 kts | 213° |
| 2026-04-22 18:58 | 57.94122 | -111.15849 | 35996 ft | 425 kts | 213° |
| 2026-04-22 18:59 | 57.73528 | -111.37459 | 35999 ft | 426 kts | 213° |
| 2026-04-22 18:59 | 57.52794 | -111.58935 | 35990 ft | 425 kts | 213° |
| 2026-04-22 19:00 | 57.32121 | -111.80065 | 35965 ft | 421 kts | 213° |
| 2026-04-22 19:00 | 57.11674 | -112.00702 | 35958 ft | 420 kts | 212° |
| 2026-04-22 19:01 | 56.91244 | -112.21056 | 35954 ft | 416 kts | 212° |
| 2026-04-22 19:01 | 56.70766 | -112.41208 | 35952 ft | 418 kts | 212° |
| 2026-04-22 19:02 | 56.50210 | -112.61188 | 35953 ft | 419 kts | 211° |
| 2026-04-22 19:02 | 56.29651 | -112.80914 | 35952 ft | 415 kts | 211° |
| 2026-04-22 19:03 | 56.09338 | -113.00177 | 35942 ft | 415 kts | 211° |
| 2026-04-22 19:03 | 55.88918 | -113.19306 | 35924 ft | 412 kts | 211° |
| 2026-04-22 19:04 | 55.68373 | -113.38325 | 35930 ft | 416 kts | 211° |
| 2026-04-22 19:04 | 55.47882 | -113.57071 | 35911 ft | 416 kts | 210° |
| 2026-04-22 19:05 | 55.27287 | -113.75687 | 35902 ft | 414 kts | 210° |
| 2026-04-22 19:05 | 55.06737 | -113.94049 | 35892 ft | 418 kts | 210° |
| 2026-04-22 19:06 | 54.95922 | -114.01692 | 36208 ft | 424 kts | 198° |
| 2026-04-22 19:06 | 54.84373 | -114.06359 | 36542 ft | 429 kts | 197° |
| 2026-04-22 19:06 | 54.72673 | -114.10991 | 36883 ft | 432 kts | 197° |
| 2026-04-22 19:07 | 54.49230 | -114.20287 | 36891 ft | 431 kts | 197° |
| 2026-04-22 19:07 | 54.29757 | -114.27926 | 36895 ft | 432 kts | 197° |
| 2026-04-22 19:08 | 54.02422 | -114.38523 | 36876 ft | 433 kts | 197° |
| 2026-04-22 19:08 | 53.82690 | -114.46085 | 36874 ft | 434 kts | 197° |
| 2026-04-22 19:09 | 53.59306 | -114.54952 | 36871 ft | 434 kts | 197° |
| 2026-04-22 19:09 | 53.35637 | -114.63825 | 36852 ft | 436 kts | 196° |
| 2026-04-22 19:10 | 53.11894 | -114.72624 | 36820 ft | 436 kts | 196° |
| 2026-04-22 19:10 | 52.88118 | -114.81339 | 36766 ft | 437 kts | 196° |
| 2026-04-22 19:11 | 52.64361 | -114.89947 | 36761 ft | 438 kts | 196° |
| 2026-04-22 19:11 | 52.40537 | -114.98484 | 36740 ft | 438 kts | 195° |
| 2026-04-22 19:12 | 52.16739 | -115.06919 | 36747 ft | 436 kts | 195° |
| 2026-04-22 19:12 | 51.93169 | -115.15181 | 36723 ft | 435 kts | 194° |
| 2026-04-22 19:13 | 51.69339 | -115.23445 | 36734 ft | 438 kts | 194° |
| 2026-04-22 19:13 | 51.45474 | -115.31634 | 36694 ft | 439 kts | 194° |
| 2026-04-22 19:14 | 51.21349 | -115.39822 | 36730 ft | 442 kts | 194° |
| 2026-04-22 19:14 | 50.97275 | -115.47906 | 36692 ft | 445 kts | 194° |
| 2026-04-22 19:15 | 50.73003 | -115.55977 | 36612 ft | 445 kts | 193° |
| 2026-04-22 19:15 | 50.48683 | -115.63969 | 36597 ft | 447 kts | 193° |
| 2026-04-22 19:16 | 50.24484 | -115.71841 | 36587 ft | 448 kts | 193° |
| 2026-04-22 19:16 | 50.00036 | -115.79711 | 36587 ft | 449 kts | 193° |
| 2026-04-22 19:17 | 49.75458 | -115.87541 | 36632 ft | 452 kts | 193° |
| 2026-04-22 19:17 | 49.51196 | -115.95193 | 36638 ft | 454 kts | 192° |
| 2026-04-22 19:18 | 49.26251 | -116.02015 | 36615 ft | 458 kts | 179° |
| 2026-04-22 19:18 | 49.00830 | -115.96934 | 36629 ft | 462 kts | 173° |
| 2026-04-22 19:18 | 48.88316 | -115.98387 | 36636 ft | 460 kts | 193° |
| 2026-04-22 19:19 | 48.75828 | -116.02772 | 36646 ft | 461 kts | 193° |
| 2026-04-22 19:19 | 48.50718 | -116.11154 | 36657 ft | 464 kts | 193° |
| 2026-04-22 19:20 | 48.25518 | -116.19462 | 36676 ft | 463 kts | 192° |
| 2026-04-22 19:20 | 48.00289 | -116.27694 | 36686 ft | 464 kts | 192° |
| 2026-04-22 19:21 | 47.74957 | -116.35877 | 36702 ft | 466 kts | 192° |
| 2026-04-22 19:21 | 47.49613 | -116.43984 | 36713 ft | 466 kts | 192° |
| 2026-04-22 19:22 | 47.24243 | -116.52019 | 36728 ft | 466 kts | 192° |
| 2026-04-22 19:22 | 46.98860 | -116.59981 | 36764 ft | 466 kts | 192° |
| 2026-04-22 19:23 | 46.73495 | -116.67856 | 36792 ft | 466 kts | 192° |
| 2026-04-22 19:23 | 46.48252 | -116.75620 | 36801 ft | 466 kts | 192° |
| 2026-04-22 19:24 | 46.22770 | -116.83388 | 36819 ft | 466 kts | 191° |
| 2026-04-22 19:24 | 45.97429 | -116.91034 | 36842 ft | 469 kts | 191° |
| 2026-04-22 19:25 | 45.71778 | -116.98708 | 36856 ft | 474 kts | 191° |
| 2026-04-22 19:25 | 45.45902 | -117.06371 | 36872 ft | 477 kts | 191° |
| 2026-04-22 19:26 | 45.33859 | -117.09914 | 36882 ft | 478 kts | 191° |
| 2026-04-22 19:26 | 45.27339 | -117.11826 | 36888 ft | 478 kts | 191° |
| 2026-04-22 19:27 | 45.20816 | -117.13734 | 36887 ft | 478 kts | 191° |
| 2026-04-22 19:27 | 45.14293 | -117.15638 | 36894 ft | 479 kts | 192° |
| 2026-04-22 19:28 | 45.07750 | -117.17543 | 36898 ft | 480 kts | 191° |
| 2026-04-22 19:28 | 45.01233 | -117.19436 | 36911 ft | 480 kts | 191° |
| 2026-04-22 19:29 | 44.94677 | -117.21336 | 36913 ft | 480 kts | 191° |
| 2026-04-22 19:29 | 44.88124 | -117.23230 | 36916 ft | 480 kts | 191° |
| 2026-04-22 19:30 | 44.82687 | -117.24798 | 36920 ft | 480 kts | 191° |
| 2026-04-22 19:30 | 44.75077 | -117.26989 | 36925 ft | 479 kts | 191° |
| 2026-04-22 19:31 | 44.68528 | -117.28868 | 36920 ft | 480 kts | 191° |
| 2026-04-22 19:31 | 44.61979 | -117.30742 | 36927 ft | 479 kts | 191° |
| 2026-04-22 19:32 | 44.55477 | -117.32598 | 36929 ft | 479 kts | 191° |
| 2026-04-22 19:32 | 44.48935 | -117.34462 | 36928 ft | 480 kts | 191° |
| 2026-04-22 19:33 | 44.42374 | -117.36329 | 36931 ft | 481 kts | 191° |
| 2026-04-22 19:33 | 44.35808 | -117.38190 | 36933 ft | 481 kts | 192° |
| 2026-04-22 19:34 | 44.29252 | -117.40045 | 36936 ft | 480 kts | 192° |
| 2026-04-22 19:34 | 44.22695 | -117.41898 | 36938 ft | 481 kts | 192° |
| 2026-04-22 19:35 | 44.16168 | -117.43737 | 36944 ft | 482 kts | 192° |
| 2026-04-22 19:35 | 44.10659 | -117.45286 | 36950 ft | 482 kts | 192° |
| 2026-04-22 19:36 | 44.03007 | -117.47435 | 36955 ft | 482 kts | 192° |
| 2026-04-22 19:36 | 43.96421 | -117.49279 | 36961 ft | 482 kts | 192° |
| 2026-04-22 19:37 | 43.89835 | -117.51118 | 36966 ft | 482 kts | 193° |
| 2026-04-22 19:37 | 43.83279 | -117.52946 | 36978 ft | 483 kts | 192° |
| 2026-04-22 19:38 | 43.76673 | -117.54782 | 36984 ft | 483 kts | 192° |
| 2026-04-22 19:38 | 43.70117 | -117.56601 | 36971 ft | 483 kts | 193° |
| 2026-04-22 19:39 | 43.63535 | -117.58424 | 36979 ft | 482 kts | 193° |
| 2026-04-22 19:39 | 43.56951 | -117.60243 | 36991 ft | 482 kts | 193° |
| 2026-04-22 19:40 | 43.50357 | -117.62060 | 36989 ft | 483 kts | 192° |
| 2026-04-22 19:40 | 43.43768 | -117.63874 | 36991 ft | 482 kts | 193° |
| 2026-04-22 19:41 | 43.37233 | -117.65668 | 36993 ft | 481 kts | 193° |
| 2026-04-22 19:41 | 43.30661 | -117.67461 | 36995 ft | 482 kts | 193° |
| 2026-04-22 19:42 | 43.24081 | -117.69264 | 36995 ft | 482 kts | 193° |
| 2026-04-22 19:42 | 43.17494 | -117.71064 | 36995 ft | 483 kts | 193° |
| 2026-04-22 19:43 | 43.07602 | -117.73748 | 36992 ft | 483 kts | 193° |
| 2026-04-22 19:43 | 43.01052 | -117.75526 | 37000 ft | 482 kts | 193° |
| 2026-04-22 19:44 | 42.94455 | -117.77311 | 36997 ft | 482 kts | 193° |
| 2026-04-22 19:44 | 42.87892 | -117.79078 | 37009 ft | 483 kts | 193° |
| 2026-04-22 19:45 | 42.81285 | -117.80857 | 37020 ft | 482 kts | 194° |
| 2026-04-22 19:45 | 42.74691 | -117.82629 | 37033 ft | 482 kts | 194° |
| 2026-04-22 19:46 | 42.68114 | -117.84386 | 37043 ft | 482 kts | 194° |
| 2026-04-22 19:46 | 42.61532 | -117.86177 | 37041 ft | 481 kts | 195° |
| 2026-04-22 19:47 | 42.55290 | -117.89132 | 37044 ft | 477 kts | 205° |
| 2026-04-22 19:47 | 42.49221 | -117.92767 | 37045 ft | 476 kts | 206° |
| 2026-04-22 19:48 | 42.43184 | -117.96514 | 37043 ft | 476 kts | 207° |
| 2026-04-22 19:48 | 42.37152 | -118.00235 | 37044 ft | 474 kts | 207° |
| 2026-04-22 19:49 | 42.31159 | -118.03897 | 37050 ft | 472 kts | 206° |
| 2026-04-22 19:49 | 42.25203 | -118.07524 | 37066 ft | 472 kts | 207° |
| 2026-04-22 19:50 | 42.19207 | -118.11174 | 37067 ft | 473 kts | 207° |
| 2026-04-22 19:50 | 42.13215 | -118.14801 | 37078 ft | 473 kts | 207° |
| 2026-04-22 19:51 | 42.07208 | -118.18430 | 37085 ft | 473 kts | 207° |
| 2026-04-22 19:51 | 42.01198 | -118.22055 | 37087 ft | 473 kts | 207° |
| 2026-04-22 19:52 | 41.95187 | -118.25677 | 37090 ft | 473 kts | 207° |
| 2026-04-22 19:52 | 41.90188 | -118.28688 | 37081 ft | 473 kts | 207° |
| 2026-04-22 19:53 | 41.83186 | -118.32891 | 37084 ft | 474 kts | 207° |
| 2026-04-22 19:53 | 41.78170 | -118.35895 | 37086 ft | 474 kts | 207° |
| 2026-04-22 19:54 | 41.72143 | -118.39496 | 37075 ft | 474 kts | 207° |
| 2026-04-22 19:54 | 41.66119 | -118.43089 | 37077 ft | 473 kts | 207° |
| 2026-04-22 19:55 | 41.60134 | -118.46652 | 37080 ft | 473 kts | 207° |
| 2026-04-22 19:55 | 41.54116 | -118.50227 | 37080 ft | 473 kts | 207° |
| 2026-04-22 19:56 | 41.48132 | -118.53774 | 37068 ft | 473 kts | 207° |
| 2026-04-22 19:56 | 41.42123 | -118.57329 | 37080 ft | 471 kts | 207° |
| 2026-04-22 19:57 | 41.36130 | -118.60867 | 37081 ft | 471 kts | 207° |
| 2026-04-22 19:57 | 41.30131 | -118.64403 | 37081 ft | 471 kts | 207° |
| 2026-04-22 19:58 | 41.24130 | -118.67933 | 37078 ft | 471 kts | 207° |
| 2026-04-22 19:58 | 41.18168 | -118.71432 | 37083 ft | 470 kts | 207° |
| 2026-04-22 20:00 | 40.88821 | -118.88555 | 37091 ft | 470 kts | 207° |
| 2026-04-22 20:01 | 40.64903 | -119.02386 | 37103 ft | 469 kts | 208° |
| 2026-04-22 20:01 | 40.41033 | -119.16080 | 37123 ft | 467 kts | 208° |
| 2026-04-22 20:02 | 40.17261 | -119.29613 | 37128 ft | 465 kts | 208° |
| 2026-04-22 20:02 | 39.93541 | -119.43012 | 37126 ft | 463 kts | 208° |
| 2026-04-22 20:03 | 39.70066 | -119.56174 | 37151 ft | 461 kts | 209° |
| 2026-04-22 20:03 | 39.45434 | -119.65529 | 37164 ft | 480 kts | 186° |
| 2026-04-22 20:04 | 39.18616 | -119.64723 | 37176 ft | 479 kts | 186° |
| 2026-04-22 20:04 | 38.92104 | -119.64049 | 37161 ft | 477 kts | 187° |
| 2026-04-22 20:05 | 38.65487 | -119.63384 | 37135 ft | 477 kts | 187° |
| 2026-04-22 20:05 | 38.39015 | -119.62702 | 37189 ft | 473 kts | 187° |
| 2026-04-22 20:06 | 38.12722 | -119.62050 | 37228 ft | 472 kts | 188° |
| 2026-04-22 20:06 | 37.86642 | -119.61403 | 37235 ft | 472 kts | 188° |
| 2026-04-22 20:07 | 37.60363 | -119.60755 | 37220 ft | 472 kts | 189° |
| 2026-04-22 20:07 | 37.34107 | -119.60116 | 37226 ft | 470 kts | 190° |
| 2026-04-22 20:08 | 37.07957 | -119.59520 | 37235 ft | 466 kts | 192° |
| 2026-04-22 20:08 | 36.82150 | -119.60033 | 37236 ft | 463 kts | 192° |
| 2026-04-22 20:09 | 36.56332 | -119.60479 | 37210 ft | 463 kts | 192° |
| 2026-04-22 20:09 | 36.30794 | -119.60916 | 37228 ft | 461 kts | 192° |
| 2026-04-22 20:10 | 36.05168 | -119.61352 | 37242 ft | 459 kts | 192° |
| 2026-04-22 20:10 | 35.92897 | -119.63404 | 37244 ft | 433 kts | 208° |
| 2026-04-22 20:10 | 35.81344 | -119.67774 | 37243 ft | 433 kts | 208° |
| 2026-04-22 20:11 | 35.57953 | -119.75395 | 37242 ft | 434 kts | 202° |
| 2026-04-22 20:11 | 35.43000 | -119.79014 | 37207 ft | 434 kts | 202° |
| 2026-04-22 20:12 | 35.38442 | -119.80116 | 37233 ft | 434 kts | 202° |
| 2026-04-22 20:13 | 35.32354 | -119.80933 | 37234 ft | 455 kts | 189° |
| 2026-04-22 20:13 | 35.29156 | -119.80430 | 37226 ft | 472 kts | 178° |
| 2026-04-22 20:13 | 35.25979 | -119.79161 | 37209 ft | 489 kts | 167° |
| 2026-04-22 20:13 | 35.22956 | -119.77134 | 36694 ft | 506 kts | 154° |
| 2026-04-22 20:14 | 35.20122 | -119.74461 | 35953 ft | 515 kts | 150° |
| 2026-04-22 20:14 | 35.17309 | -119.71746 | 35343 ft | 516 kts | 150° |
| 2026-04-22 20:14 | 35.14505 | -119.69072 | 34736 ft | 517 kts | 150° |
| 2026-04-22 20:14 | 35.11658 | -119.66384 | 34134 ft | 517 kts | 150° |
| 2026-04-22 20:15 | 35.08801 | -119.63704 | 33437 ft | 518 kts | 150° |
| 2026-04-22 20:15 | 35.05935 | -119.61029 | 32689 ft | 519 kts | 150° |
| 2026-04-22 20:15 | 35.03052 | -119.58344 | 31892 ft | 521 kts | 150° |
| 2026-04-22 20:15 | 35.00162 | -119.55658 | 31130 ft | 523 kts | 150° |
| 2026-04-22 20:16 | 34.97254 | -119.52958 | 30424 ft | 525 kts | 150° |
| 2026-04-22 20:16 | 34.94349 | -119.50263 | 29600 ft | 526 kts | 149° |
| 2026-04-22 20:16 | 34.91432 | -119.47560 | 28813 ft | 526 kts | 149° |
| 2026-04-22 20:16 | 34.88502 | -119.44895 | 28127 ft | 523 kts | 150° |
| 2026-04-22 20:17 | 34.85575 | -119.42281 | 27476 ft | 519 kts | 150° |
| 2026-04-22 20:17 | 34.82735 | -119.39745 | 26756 ft | 508 kts | 150° |
| 2026-04-22 20:17 | 34.79909 | -119.37222 | 25612 ft | 499 kts | 150° |
| 2026-04-22 20:17 | 34.77117 | -119.34734 | 24664 ft | 497 kts | 150° |
| 2026-04-22 20:18 | 34.74330 | -119.32253 | 24114 ft | 494 kts | 150° |
| 2026-04-22 20:18 | 34.71546 | -119.29813 | 23551 ft | 490 kts | 151° |
| 2026-04-22 20:18 | 34.68788 | -119.27409 | 22958 ft | 486 kts | 150° |
| 2026-04-22 20:18 | 34.66051 | -119.25023 | 22376 ft | 482 kts | 150° |
| 2026-04-22 20:19 | 34.63336 | -119.22664 | 21852 ft | 478 kts | 151° |
| 2026-04-22 20:19 | 34.60637 | -119.20337 | 21297 ft | 474 kts | 151° |
| 2026-04-22 20:19 | 34.57960 | -119.18030 | 20773 ft | 470 kts | 150° |
| 2026-04-22 20:19 | 34.55299 | -119.15737 | 20225 ft | 467 kts | 150° |
| 2026-04-22 20:20 | 34.52679 | -119.13423 | 19694 ft | 464 kts | 149° |
| 2026-04-22 20:20 | 34.50089 | -119.11122 | 19230 ft | 460 kts | 149° |
| 2026-04-22 20:20 | 34.47535 | -119.08853 | 18644 ft | 447 kts | 149° |
| 2026-04-22 20:20 | 34.45070 | -119.06664 | 18101 ft | 434 kts | 149° |
| 2026-04-22 20:21 | 34.42632 | -119.04523 | 17526 ft | 433 kts | 150° |
| 2026-04-22 20:21 | 34.40178 | -119.02398 | 16906 ft | 433 kts | 149° |
| 2026-04-22 20:21 | 34.37764 | -119.00316 | 16400 ft | 430 kts | 149° |
| 2026-04-22 20:21 | 34.35337 | -118.98221 | 15917 ft | 427 kts | 149° |
| 2026-04-22 20:22 | 34.32928 | -118.96133 | 15437 ft | 425 kts | 148° |
| 2026-04-22 20:22 | 34.30565 | -118.93998 | 14938 ft | 422 kts | 147° |
| 2026-04-22 20:22 | 34.28232 | -118.91864 | 14465 ft | 419 kts | 147° |
| 2026-04-22 20:22 | 34.25913 | -118.89747 | 13980 ft | 417 kts | 147° |
| 2026-04-22 20:23 | 34.23605 | -118.87643 | 13452 ft | 414 kts | 146° |
| 2026-04-22 20:23 | 34.21321 | -118.85537 | 12970 ft | 410 kts | 146° |
| 2026-04-22 20:23 | 34.19064 | -118.83453 | 12498 ft | 405 kts | 146° |
| 2026-04-22 20:23 | 34.16893 | -118.81451 | 11919 ft | 390 kts | 146° |
| 2026-04-22 20:24 | 34.14822 | -118.79457 | 11512 ft | 372 kts | 141° |
| 2026-04-22 20:24 | 34.12963 | -118.77396 | 11179 ft | 354 kts | 140° |
| 2026-04-22 20:24 | 34.11207 | -118.75410 | 10908 ft | 336 kts | 140° |
| 2026-04-22 20:24 | 34.09527 | -118.73536 | 10635 ft | 323 kts | 140° |
| 2026-04-22 20:25 | 34.07892 | -118.71724 | 10254 ft | 316 kts | 140° |
| 2026-04-22 20:25 | 34.06267 | -118.69965 | 10033 ft | 312 kts | 141° |
| 2026-04-22 20:25 | 34.04657 | -118.68221 | 9798 ft | 307 kts | 139° |
| 2026-04-22 20:25 | 34.03307 | -118.66224 | 9664 ft | 308 kts | 118° |
| 2026-04-22 20:26 | 34.02685 | -118.63793 | 9522 ft | 301 kts | 98° |
| 2026-04-22 20:26 | 34.02428 | -118.61335 | 9270 ft | 298 kts | 95° |
| 2026-04-22 20:26 | 34.02215 | -118.58859 | 8962 ft | 295 kts | 95° |
| 2026-04-22 20:26 | 34.02001 | -118.56408 | 8695 ft | 293 kts | 95° |
| 2026-04-22 20:27 | 34.01784 | -118.53981 | 8432 ft | 290 kts | 95° |
| 2026-04-22 20:27 | 34.01564 | -118.51563 | 8156 ft | 289 kts | 95° |
| 2026-04-22 20:27 | 34.01340 | -118.49164 | 7920 ft | 287 kts | 95° |
| 2026-04-22 20:27 | 34.01127 | -118.46767 | 7666 ft | 285 kts | 93° |
| 2026-04-22 20:28 | 34.01239 | -118.44400 | 7416 ft | 281 kts | 78° |
| 2026-04-22 20:28 | 34.01603 | -118.42130 | 7206 ft | 276 kts | 76° |
| 2026-04-22 20:28 | 34.01994 | -118.39910 | 7001 ft | 267 kts | 75° |
| 2026-04-22 20:28 | 34.02373 | -118.37751 | 6755 ft | 257 kts | 76° |
| 2026-04-22 20:29 | 34.02733 | -118.35689 | 6654 ft | 245 kts | 75° |
| 2026-04-22 20:29 | 34.03006 | -118.33731 | 6555 ft | 230 kts | 81° |
| 2026-04-22 20:29 | 34.03178 | -118.31861 | 6465 ft | 219 kts | 82° |
| 2026-04-22 20:29 | 34.03339 | -118.30062 | 6325 ft | 212 kts | 81° |
| 2026-04-22 20:30 | 34.03511 | -118.28305 | 5985 ft | 211 kts | 82° |
| 2026-04-22 20:30 | 34.03704 | -118.26550 | 5652 ft | 211 kts | 82° |
| 2026-04-22 20:30 | 34.03898 | -118.24808 | 5356 ft | 209 kts | 82° |
| 2026-04-22 20:30 | 34.04092 | -118.23070 | 5034 ft | 208 kts | 83° |
| 2026-04-22 20:31 | 34.04283 | -118.21359 | 4895 ft | 209 kts | 83° |
| 2026-04-22 20:31 | 34.04474 | -118.19628 | 4752 ft | 208 kts | 81° |
| 2026-04-22 20:31 | 34.04667 | -118.17896 | 4632 ft | 208 kts | 81° |
| 2026-04-22 20:31 | 34.04861 | -118.16165 | 4487 ft | 209 kts | 81° |
| 2026-04-22 20:32 | 34.05057 | -118.14419 | 4366 ft | 209 kts | 81° |
| 2026-04-22 20:32 | 34.05247 | -118.12677 | 4212 ft | 209 kts | 82° |
| 2026-04-22 20:32 | 34.05208 | -118.10945 | 3949 ft | 209 kts | 108° |
| 2026-04-22 20:32 | 34.04443 | -118.09493 | 3717 ft | 205 kts | 136° |
| 2026-04-22 20:33 | 34.03392 | -118.08351 | 3465 ft | 202 kts | 148° |
| 2026-04-22 20:33 | 34.02085 | -118.07921 | 3199 ft | 193 kts | 187° |
| 2026-04-22 20:33 | 34.00899 | -118.08511 | 2969 ft | 187 kts | 221° |
| 2026-04-22 20:33 | 33.99996 | -118.09626 | 2833 ft | 185 kts | 230° |
| 2026-04-22 20:34 | 33.99163 | -118.10820 | 2728 ft | 184 kts | 231° |
| 2026-04-22 20:34 | 33.98444 | -118.12052 | 2597 ft | 178 kts | 242° |
| 2026-04-22 20:34 | 33.98030 | -118.13487 | 2586 ft | 181 kts | 257° |
| 2026-04-22 20:34 | 33.97821 | -118.14948 | 2597 ft | 177 kts | 260° |
| 2026-04-22 20:35 | 33.97645 | -118.16456 | 2772 ft | 184 kts | 262° |
| 2026-04-22 20:35 | 33.97489 | -118.17985 | 2657 ft | 184 kts | 261° |
| 2026-04-22 20:35 | 33.97336 | -118.19508 | 2608 ft | 182 kts | 262° |
| 2026-04-22 20:35 | 33.97183 | -118.21020 | 2607 ft | 181 kts | 261° |
| 2026-04-22 20:36 | 33.97032 | -118.22504 | 2584 ft | 175 kts | 261° |
| 2026-04-22 20:36 | 33.96886 | -118.23936 | 2589 ft | 172 kts | 263° |
| 2026-04-22 20:36 | 33.96752 | -118.25384 | 2558 ft | 174 kts | 262° |
| 2026-04-22 20:36 | 33.96605 | -118.26850 | 2364 ft | 178 kts | 261° |
| 2026-04-22 20:37 | 33.96430 | -118.28320 | 2141 ft | 175 kts | 259° |
| 2026-04-22 20:37 | 33.96273 | -118.29747 | 1877 ft | 168 kts | 262° |
| 2026-04-22 20:37 | 33.96151 | -118.31112 | 1625 ft | 160 kts | 262° |
| 2026-04-22 20:37 | 33.96028 | -118.32371 | 1427 ft | 147 kts | 262° |
| 2026-04-22 20:38 | 33.95921 | -118.33542 | 1242 ft | 137 kts | 259° |
| 2026-04-22 20:38 | 33.95800 | -118.34673 | 1055 ft | 135 kts | 259° |
| 2026-04-22 20:38 | 33.95673 | -118.35802 | 860 ft | 137 kts | 261° |
| 2026-04-22 20:38 | 33.95557 | -118.36950 | 669 ft | 137 kts | 259° |
| 2026-04-22 20:39 | 33.95435 | -118.38067 | 495 ft | 134 kts | 258° |
| 2026-04-22 20:39 | 33.95318 | -118.39190 | 284 ft | 135 kts | 260° |
| 2026-04-22 20:39 | 33.95200 | -118.40301 | 126 ft | 132 kts | 260° |
| 2026-04-22 20:39 | 33.95097 | -118.41307 | 97 ft | 102 kts | 263° |
| 2026-04-22 20:40 | 33.95026 | -118.41994 | 97 ft | 67 kts | 263° |
| 2026-04-22 20:40 | 33.94986 | -118.42357 | 99 ft | 30 kts | 262° |
| 2026-04-22 20:40 | 33.94952 | -118.42516 | 99 ft | 29 kts | 249° |
| 2026-04-22 20:40 | 33.94887 | -118.42636 | 103 ft | 11 kts | 227° |
| 2026-04-22 20:41 | 33.94838 | -118.42699 | 101 ft | 9 kts | 223° |
| 2026-04-22 20:41 | 33.94780 | -118.42749 | 105 ft | 7 kts | 210° |
| 2026-04-22 20:41 | 33.94720 | -118.42774 | 105 ft | 11 kts | 192° |
| 2026-04-22 20:41 | 33.94666 | -118.42777 | 101 ft | 10 kts | 174° |
| 2026-04-22 20:42 | 33.94633 | -118.42713 | 99 ft | 10 kts | 87° |
| 2026-04-22 20:42 | 33.94642 | -118.42624 | 98 ft | 11 kts | 83° |
| 2026-04-22 20:42 | 33.94652 | -118.42525 | 100 ft | 12 kts | 83° |
| 2026-04-22 20:42 | 33.94663 | -118.42416 | 101 ft | 14 kts | 83° |
| 2026-04-22 20:43 | 33.94675 | -118.42298 | 101 ft | 15 kts | 82° |
| 2026-04-22 20:43 | 33.94691 | -118.42156 | 100 ft | 19 kts | 83° |
| 2026-04-22 20:43 | 33.94708 | -118.41988 | 97 ft | 21 kts | 83° |
| 2026-04-22 20:43 | 33.94726 | -118.41798 | 99 ft | 24 kts | 83° |
| 2026-04-22 20:44 | 33.94746 | -118.41597 | 101 ft | 25 kts | 83° |
| 2026-04-22 20:44 | 33.94773 | -118.41395 | 101 ft | 15 kts | 77° |
| 2026-04-22 20:44 | 33.94776 | -118.41323 | 98 ft | 6 kts | 116° |
| 2026-04-22 20:44 | 33.94739 | -118.41289 | 99 ft | 10 kts | 164° |
| 2026-04-22 20:45 | 33.94645 | -118.41278 | 100 ft | 16 kts | 173° |
| 2026-04-22 20:45 | 33.94544 | -118.41257 | 100 ft | 11 kts | 158° |
| 2026-04-22 20:45 | 33.94529 | -118.41225 | 98 ft | 4 kts | 103° |
| 2026-04-22 20:45 | 33.94523 | -118.41166 | 98 ft | 8 kts | 96° |
| 2026-04-22 20:46 | 33.94521 | -118.41143 | 99 ft | 0 kts | 96° |